Time;durP1;ratioP1;P1;durP2;ratioP2;P2;SDS_P1;SDS_P2;PMS_P1;PMS_P2;Temp;Humidity;BMP_temperature;BMP_pressure;BME280_temperature;BME280_humidity;BME280_pressure;Samples;Min_cycle;Max_cycle;Signal;HPM_P1;HPM_P2
2022/04/07 00:02:25;;;;;;;7.07;3.80;;;;;;;10.05;80.55;98909.44;6195724;23;20083;-80
2022/04/07 00:04:51;;;;;;;5.05;3.70;;;;;;;9.98;80.95;98908.59;6193795;23;20058;-79
2022/04/07 00:07:22;;;;;;;5.13;3.60;;;;;;;9.91;80.35;98897.34;6193600;23;20024;-80
2022/04/07 00:09:55;;;;;;;8.10;3.80;;;;;;;9.92;78.98;98891.13;6192805;23;20021;-80
2022/04/07 00:12:24;;;;;;;4.90;3.20;;;;;;;9.85;79.07;98872.78;6194813;23;20076;-80
2022/04/07 00:14:58;;;;;;;5.05;3.40;;;;;;;9.80;79.66;98875.19;6195157;23;20025;-81
2022/04/07 00:17:49;;;;;;;4.10;3.38;;;;;;;9.96;77.55;98890.50;6193703;23;20532;-80
2022/04/07 00:20:16;;;;;;;8.18;3.20;;;;;;;9.87;78.86;98891.69;6193885;23;20071;-80
2022/04/07 00:22:44;;;;;;;4.22;3.30;;;;;;;9.92;79.41;98893.72;6194889;23;20120;-80
2022/04/07 00:25:11;;;;;;;5.57;3.08;;;;;;;9.89;78.64;98878.44;6195859;23;20100;-80
2022/04/07 00:27:42;;;;;;;7.38;3.58;;;;;;;10.02;78.40;98880.28;6194868;23;20056;-79
2022/04/07 00:30:13;;;;;;;4.25;3.40;;;;;;;9.98;79.12;98887.69;6197104;23;20032;-80
2022/04/07 00:32:47;;;;;;;4.90;3.10;;;;;;;9.93;78.65;98869.19;6197022;23;20029;-80
2022/04/07 00:35:17;;;;;;;3.85;3.20;;;;;;;9.87;79.03;98865.56;6195764;23;20093;-80
2022/04/07 00:37:45;;;;;;;6.05;3.13;;;;;;;9.94;78.71;98862.97;6197919;23;20052;-80
2022/04/07 00:40:13;;;;;;;3.70;2.88;;;;;;;9.88;78.99;98877.63;6198799;23;20522;-81
2022/04/07 00:42:47;;;;;;;5.93;3.13;;;;;;;9.76;79.28;98855.66;6198187;23;20465;-81
2022/04/07 00:45:15;;;;;;;4.45;3.13;;;;;;;9.80;79.06;98871.75;6196414;23;20021;-80
2022/04/07 00:47:42;;;;;;;4.72;3.13;;;;;;;9.78;78.50;98855.47;6192372;23;20435;-80
2022/04/07 00:50:12;;;;;;;4.28;3.10;;;;;;;9.68;79.24;98855.00;6192421;23;20021;-80
2022/04/07 00:52:48;;;;;;;5.10;3.08;;;;;;;9.59;79.33;98849.94;6194380;23;20083;-81
2022/04/07 00:55:19;;;;;;;7.35;3.28;;;;;;;9.51;79.26;98834.44;6193748;23;20029;-80
2022/04/07 00:57:47;;;;;;;5.93;3.17;;;;;;;9.59;78.87;98836.88;6193257;23;20051;-81
2022/04/07 01:00:17;;;;;;;3.97;3.13;;;;;;;9.54;79.26;98834.06;6192311;23;20017;-81
2022/04/07 01:02:48;;;;;;;3.45;2.78;;;;;;;9.58;78.81;98835.28;6195484;23;20036;-81
2022/04/07 01:05:20;;;;;;;7.28;3.05;;;;;;;9.63;79.44;98830.28;6195788;23;20029;-80
2022/04/07 01:07:49;;;;;;;4.38;2.85;;;;;;;9.62;79.31;98831.28;6200739;23;20025;-79
2022/04/07 01:10:21;;;;;;;5.78;3.13;;;;;;;9.78;78.54;98835.38;6203503;23;20025;-80
2022/04/07 01:12:48;;;;;;;4.22;2.90;;;;;;;9.85;78.71;98824.97;6202897;23;20017;-81
2022/04/07 01:15:22;;;;;;;3.13;2.75;;;;;;;9.77;78.96;98796.41;6200578;23;20091;-80
2022/04/07 01:17:53;;;;;;;5.13;2.97;;;;;;;9.79;78.40;98789.97;6198624;23;20021;-80
2022/04/07 01:20:23;;;;;;;4.13;2.83;;;;;;;9.65;79.24;98789.13;6198277;23;20024;-80
2022/04/07 01:22:52;;;;;;;3.30;3.00;;;;;;;9.63;78.90;98766.81;6197244;23;20024;-80
2022/04/07 01:28:08;;;;;;;4.95;3.10;;;;;;;9.55;79.19;98770.38;6166337;23;20037;-80
2022/04/07 01:30:37;;;;;;;3.30;2.78;;;;;;;9.68;79.28;98787.91;6168199;23;20072;-81
2022/04/07 01:33:05;;;;;;;2.97;2.65;;;;;;;9.83;78.06;98785.16;6168716;23;20021;-85
2022/04/07 01:35:32;;;;;;;4.25;2.88;;;;;;;9.80;77.78;98775.09;6162947;23;20026;-83
2022/04/07 01:38:01;;;;;;;3.08;2.33;;;;;;;9.91;77.32;98787.63;6161309;23;20090;-83
2022/04/07 01:40:32;;;;;;;3.45;2.45;;;;;;;9.92;77.50;98769.09;6165937;23;20030;-82
2022/04/07 01:43:10;;;;;;;3.28;2.28;;;;;;;9.95;77.26;98767.91;6165566;23;20047;-83
2022/04/07 01:45:49;;;;;;;4.22;2.30;;;;;;;9.85;77.55;98746.59;6162308;23;20029;-83
2022/04/07 01:48:28;;;;;;;2.70;2.00;;;;;;;9.91;77.07;98758.88;6162835;23;20021;-80
2022/04/07 01:50:59;;;;;;;3.65;2.33;;;;;;;10.02;76.62;98765.31;6164143;23;20525;-81
2022/04/07 01:56:23;;;;;;;3.70;2.10;;;;;;;10.05;76.36;98742.19;6161990;23;20040;-81
2022/04/07 01:59:08;;;;;;;2.28;1.80;;;;;;;9.98;76.42;98733.53;6161308;23;20059;-81
2022/04/07 02:01:43;;;;;;;3.40;2.00;;;;;;;10.07;76.80;98734.16;6162118;23;20029;-81
2022/04/07 02:04:36;;;;;;;;;;;;;;;;;;;;;
2022/04/07 02:07:09;;;;;;;2.90;1.80;;;;;;;10.03;76.63;98733.75;6160274;23;20025;-81
2022/04/07 02:10:00;;;;;;;5.13;2.00;;;;;;;10.05;76.89;98744.81;6159106;23;20066;-81
2022/04/07 02:15:15;;;;;;;2.42;2.03;;;;;;;10.03;76.56;98723.31;6156822;23;20022;-80
2022/04/07 02:17:55;;;;;;;1.92;1.83;;;;;;;10.05;76.85;98708.22;6162386;23;20029;-81
2022/04/07 02:20:26;;;;;;;2.33;1.65;;;;;;;10.04;77.26;98729.34;6161246;23;20018;-82
2022/04/07 02:23:10;;;;;;;5.72;2.20;;;;;;;10.07;76.62;98723.72;6162566;23;20354;-82
2022/04/07 02:25:49;;;;;;;3.20;2.00;;;;;;;10.05;77.17;98721.28;6159888;23;20037;-82
2022/04/07 02:28:18;;;;;;;5.05;2.20;;;;;;;9.98;77.47;98713.44;6158529;23;20018;-83
2022/04/07 02:31:26;;;;;;;3.47;1.77;;;;;;;9.94;76.65;98693.13;6157241;23;20065;-82
2022/04/07 02:39:36;;;;;;;6.30;2.15;;;;;;;10.05;77.18;98700.41;6200135;23;20021;-81
2022/04/07 02:42:14;;;;;;;3.17;1.75;;;;;;;10.07;77.05;98690.53;6202289;23;20556;-80
2022/04/07 02:44:57;;;;;;;2.83;1.77;;;;;;;10.06;77.57;98690.75;6201391;23;20020;-81
2022/04/07 02:48:01;;;;;;;3.70;2.15;;;;;;;9.95;77.37;98679.06;6175293;23;20021;-81
2022/04/07 02:50:30;;;;;;;3.15;2.00;;;;;;;9.93;77.83;98665.41;6161832;23;20021;-81
2022/04/07 02:52:58;;;;;;;4.60;2.05;;;;;;;9.98;77.86;98663.00;6175491;23;20025;-81
2022/04/07 02:55:25;;;;;;;4.50;1.90;;;;;;;10.04;77.25;98670.03;6173971;23;20433;-81
2022/04/07 02:57:52;;;;;;;3.70;2.10;;;;;;;9.89;77.51;98643.31;6174154;23;20076;-79
2022/04/07 03:00:26;;;;;;;2.75;1.60;;;;;;;10.07;77.44;98666.22;6161432;23;20025;-80
2022/04/07 03:02:57;;;;;;;3.95;2.17;;;;;;;10.05;76.45;98639.50;6160849;23;20146;-79
2022/04/07 03:05:27;;;;;;;4.40;2.25;;;;;;;10.11;76.77;98663.00;6160454;23;20028;-79
2022/04/07 03:07:57;;;;;;;4.30;2.10;;;;;;;10.09;76.70;98648.53;6159696;23;20033;-80
2022/04/07 03:10:29;;;;;;;4.50;2.20;;;;;;;9.99;76.51;98623.59;6161740;23;20101;-81
2022/04/07 03:13:06;;;;;;;5.53;1.95;;;;;;;10.05;76.87;98642.91;6161185;23;20484;-81
2022/04/07 03:15:37;;;;;;;5.72;2.03;;;;;;;10.00;76.85;98627.03;6160845;23;20350;-81
2022/04/07 03:18:07;;;;;;;4.72;2.10;;;;;;;10.03;77.31;98624.00;6160895;23;20117;-81
2022/04/07 03:20:46;;;;;;;4.93;2.40;;;;;;;10.01;76.97;98630.44;6161837;23;20040;-81
2022/04/07 03:23:40;;;;;;;4.93;2.17;;;;;;;9.82;78.13;98596.28;6161429;23;20406;-81
2022/04/07 03:26:07;;;;;;;4.60;2.33;;;;;;;9.96;77.79;98602.31;6165173;23;20031;-82
2022/04/07 03:28:36;;;;;;;3.60;1.92;;;;;;;9.89;77.62;98586.66;6161609;23;20048;-83
2022/04/07 03:31:03;;;;;;;4.95;2.80;;;;;;;10.02;78.21;98598.88;6161647;23;20094;-82
2022/04/07 03:33:40;;;;;;;3.97;2.40;;;;;;;10.06;77.63;98586.22;6161610;23;20026;-81
2022/04/07 03:36:32;;;;;;;6.45;2.35;;;;;;;10.06;77.47;98587.03;6161231;23;20092;-82
2022/04/07 03:39:39;;;;;;;3.83;2.28;;;;;;;9.97;77.24;98567.34;6161395;23;20029;-82
2022/04/07 03:42:20;;;;;;;6.47;2.30;;;;;;;9.96;77.64;98539.59;6162653;23;20027;-82
2022/04/07 03:50:56;;;;;;;6.60;2.17;;;;;;;10.00;77.77;98556.47;6220555;23;20096;-82
2022/04/07 03:53:33;;;;;;;4.40;2.70;;;;;;;9.94;77.46;98541.59;6220802;23;20496;-81
2022/04/07 03:56:18;;;;;;;2.85;2.20;;;;;;;9.99;76.28;98533.97;6213443;23;20017;-81
2022/04/07 03:59:25;;;;;;;3.78;1.80;;;;;;;10.02;76.10;98525.72;6189246;23;20031;-80
2022/04/07 04:02:14;;;;;;;3.88;2.00;;;;;;;10.08;76.64;98537.97;6189857;23;20040;-79
2022/04/07 04:07:59;;;;;;;4.43;2.22;;;;;;;10.11;76.53;98521.09;6187636;23;20052;-79
2022/04/07 04:10:34;;;;;;;3.50;1.58;;;;;;;10.21;76.54;98517.09;6191999;23;20028;-79
2022/04/07 04:13:07;;;;;;;2.28;1.67;;;;;;;10.18;76.45;98495.75;6192796;23;20029;-79
2022/04/07 04:15:36;;;;;;;4.10;1.98;;;;;;;10.18;76.48;98485.28;6193541;23;20021;-80
2022/04/07 04:18:07;;;;;;;4.68;2.38;;;;;;;10.09;76.79;98474.25;6195554;23;20021;-79
2022/04/07 04:20:40;;;;;;;4.07;1.27;;;;;;;10.21;77.14;98490.94;6195450;23;20017;-80
2022/04/07 04:23:06;;;;;;;2.45;1.35;;;;;;;10.12;76.65;98455.56;6195632;23;20017;-80
2022/04/07 04:28:20;;;;;;;2.92;1.67;;;;;;;10.06;77.24;98461.59;6167711;23;20446;-84
2022/04/07 04:30:47;;;;;;;5.70;2.13;;;;;;;10.23;76.53;98473.25;6167158;23;20026;-84
2022/04/07 04:33:15;;;;;;;3.00;1.75;;;;;;;10.26;76.80;98465.00;6167464;23;20041;-83
2022/04/07 04:35:44;;;;;;;1.88;1.35;;;;;;;10.21;77.15;98464.81;6174380;23;20013;-83
2022/04/07 04:38:13;;;;;;;2.03;1.50;;;;;;;10.30;76.97;98457.53;6138207;23;20084;-83
2022/04/07 04:40:39;;;;;;;3.28;1.85;;;;;;;10.23;77.14;98457.56;6136516;23;20102;-83
2022/04/07 04:43:06;;;;;;;1.30;1.17;;;;;;;10.17;77.65;98434.84;6138363;23;20026;-85
2022/04/07 04:45:33;;;;;;;2.35;1.35;;;;;;;10.06;78.43;98438.09;6139380;23;20034;-85
2022/04/07 04:48:00;;;;;;;1.90;1.38;;;;;;;10.10;78.78;98428.81;6139012;23;20022;-83
2022/04/07 04:50:28;;;;;;;2.90;1.60;;;;;;;10.01;79.53;98422.22;6138068;23;20053;-83
2022/04/07 04:52:55;;;;;;;1.23;1.00;;;;;;;9.99;80.03;98417.19;6135753;23;20026;-82
2022/04/07 04:55:30;;;;;;;1.50;0.95;;;;;;;9.91;80.76;98421.88;6137303;23;20025;-82
2022/04/07 04:58:04;;;;;;;3.65;1.20;;;;;;;9.91;81.24;98421.88;6135927;23;20052;-83
2022/04/07 05:00:30;;;;;;;1.58;1.48;;;;;;;9.83;82.23;98411.63;6137401;23;20018;-83
2022/04/07 05:03:00;;;;;;;3.08;1.73;;;;;;;9.63;84.00;98390.78;6137549;23;20403;-83
2022/04/07 05:05:31;;;;;;;5.57;3.88;;;;;;;9.62;85.47;98404.84;6136464;23;20029;-85
2022/04/07 05:08:01;;;;;;;4.82;3.65;;;;;;;9.70;85.05;98394.19;6136213;23;20056;-83
2022/04/07 05:10:28;;;;;;;5.13;2.97;;;;;;;9.53;86.07;98391.19;6135841;23;20077;-84
2022/04/07 05:12:55;;;;;;;4.90;3.35;;;;;;;9.61;86.38;98385.75;6134798;23;20026;-83
2022/04/07 05:15:43;;;;;;;4.85;3.15;;;;;;;9.51;86.15;98366.31;6135989;23;20026;-82
2022/04/07 05:18:24;;;;;;;2.40;1.85;;;;;;;9.61;86.98;98371.91;6134634;23;20072;-84
2022/04/07 05:20:53;;;;;;;1.95;1.52;;;;;;;9.60;85.88;98373.72;6137489;23;20025;-84
2022/04/07 05:23:38;;;;;;;2.53;1.85;;;;;;;9.46;87.35;98366.09;6136610;23;20057;-83
2022/04/07 05:26:07;;;;;;;2.63;1.90;;;;;;;9.49;86.32;98342.22;6135052;23;20025;-84
2022/04/07 05:35:05;;;;;;;3.65;2.03;;;;;;;9.58;85.83;98323.50;6135014;23;20029;-84
2022/04/07 05:37:33;;;;;;;3.15;2.30;;;;;;;9.60;84.86;98318.88;6136172;23;20340;-83
2022/04/07 05:40:00;;;;;;;2.25;2.00;;;;;;;9.73;84.17;98319.84;6134054;23;20025;-82
2022/04/07 05:42:27;;;;;;;3.58;2.30;;;;;;;9.85;84.08;98319.00;6134691;23;20032;-82
2022/04/07 05:44:54;;;;;;;7.90;5.07;;;;;;;9.88;84.63;98331.66;6136479;23;20098;-82
2022/04/07 05:47:21;;;;;;;4.70;3.42;;;;;;;9.86;83.24;98309.34;6145562;23;20022;-83
2022/04/07 05:49:47;;;;;;;2.83;2.13;;;;;;;9.89;82.55;98298.50;6145596;23;20032;-82
2022/04/07 05:52:14;;;;;;;6.82;3.88;;;;;;;9.95;82.79;98308.09;6144624;23;20030;-83
2022/04/07 05:54:42;;;;;;;2.38;2.22;;;;;;;9.96;82.55;98302.66;6143836;23;20093;-80
2022/04/07 05:57:09;;;;;;;3.03;1.92;;;;;;;9.96;81.58;98289.59;6145753;23;20025;-83
2022/04/07 05:59:36;;;;;;;4.18;3.00;;;;;;;9.94;82.36;98301.25;6145471;23;20025;-82
2022/04/07 06:02:03;;;;;;;1.77;1.40;;;;;;;10.01;82.61;98294.19;6147234;23;20050;-83
2022/04/07 06:04:29;;;;;;;2.17;1.67;;;;;;;9.91;82.10;98276.38;6148052;23;20069;-81
2022/04/07 06:06:56;;;;;;;4.43;1.55;;;;;;;10.03;82.77;98288.75;6147117;23;20021;-82
2022/04/07 06:09:23;;;;;;;2.75;1.65;;;;;;;10.02;83.38;98282.72;6145053;23;20026;-83
2022/04/07 06:11:51;;;;;;;2.63;1.73;;;;;;;10.03;83.40;98271.28;6144715;23;20022;-81
2022/04/07 06:14:17;;;;;;;3.10;1.63;;;;;;;9.89;84.67;98277.59;6142246;23;20044;-82
2022/04/07 06:16:44;;;;;;;3.75;1.77;;;;;;;9.83;86.34;98273.22;6137603;23;20037;-82
2022/04/07 06:19:10;;;;;;;2.30;2.10;;;;;;;9.71;86.60;98277.47;6137492;23;20053;-82
2022/04/07 06:21:37;;;;;;;4.03;2.28;;;;;;;9.76;86.05;98256.75;6136946;23;20049;-82
2022/04/07 06:24:04;;;;;;;3.10;1.80;;;;;;;9.75;85.05;98245.50;6136861;23;20064;-83
2022/04/07 06:26:31;;;;;;;2.80;1.75;;;;;;;9.77;85.81;98247.91;6133316;23;20032;-82
2022/04/07 06:28:59;;;;;;;1.60;1.50;;;;;;;9.82;85.04;98235.03;6131476;23;20196;-83
2022/04/07 06:31:26;;;;;;;2.08;1.48;;;;;;;9.83;85.34;98234.03;6132620;23;20033;-84
2022/04/07 06:33:53;;;;;;;2.97;2.08;;;;;;;9.91;85.17;98224.13;6142897;23;20030;-83
2022/04/07 06:36:20;;;;;;;2.95;2.33;;;;;;;10.03;83.73;98216.41;6139560;23;20026;-81
2022/04/07 06:38:47;;;;;;;2.80;1.60;;;;;;;10.03;84.60;98205.16;6132542;23;20078;-82
2022/04/07 06:41:13;;;;;;;2.53;1.50;;;;;;;10.13;83.30;98205.50;6131636;23;20075;-82
2022/04/07 06:43:40;;;;;;;2.85;2.10;;;;;;;10.33;82.99;98202.78;6132053;23;20101;-83
2022/04/07 06:46:08;;;;;;;1.75;1.02;;;;;;;10.34;82.31;98196.53;6133007;23;20058;-82
2022/04/07 06:48:37;;;;;;;3.50;1.38;;;;;;;10.18;82.79;98171.69;6142615;23;20026;-81
2022/04/07 06:51:04;;;;;;;2.40;1.90;;;;;;;10.07;83.82;98174.97;6153752;23;20021;-81
2022/04/07 06:53:30;;;;;;;4.60;2.28;;;;;;;10.08;83.78;98143.41;6148161;23;20037;-82
2022/04/07 06:55:57;;;;;;;2.67;1.52;;;;;;;10.19;83.74;98142.75;6140797;23;20454;-82
2022/04/07 06:58:23;;;;;;;2.90;2.63;;;;;;;10.28;83.93;98146.72;6130818;23;20109;-82
2022/04/07 07:00:50;;;;;;;2.80;2.03;;;;;;;10.25;83.49;98141.09;6130009;23;20097;-82
2022/04/07 07:03:18;;;;;;;4.20;3.15;;;;;;;10.27;82.73;98126.00;6131189;23;20159;-82
2022/04/07 07:05:45;;;;;;;3.08;1.45;;;;;;;10.25;83.79;98120.19;6130037;23;20475;-82
2022/04/07 07:08:13;;;;;;;1.55;1.45;;;;;;;10.37;82.36;98107.22;6130596;23;20049;-82
2022/04/07 07:10:40;;;;;;;3.33;1.35;;;;;;;10.35;81.68;98102.22;6130545;23;20026;-82
2022/04/07 07:13:07;;;;;;;7.43;1.38;;;;;;;10.33;82.58;98088.56;6131085;23;20069;-82
2022/04/07 07:15:33;;;;;;;2.88;1.88;;;;;;;10.30;81.42;98068.88;6131108;23;20078;-82
2022/04/07 07:18:00;;;;;;;2.22;1.30;;;;;;;10.40;81.01;98067.59;6130530;23;20026;-81
2022/04/07 07:20:28;;;;;;;1.88;1.50;;;;;;;10.41;81.01;98062.13;6132907;23;20105;-81
2022/04/07 07:22:54;;;;;;;1.63;1.45;;;;;;;10.44;81.78;98047.81;6134686;23;20364;-82
2022/04/07 07:25:21;;;;;;;2.00;1.00;;;;;;;10.49;81.58;98048.75;6133891;23;20026;-81
2022/04/07 07:27:48;;;;;;;1.88;1.30;;;;;;;10.58;81.40;98031.75;6133835;23;20056;-82
2022/04/07 07:30:16;;;;;;;2.63;1.52;;;;;;;10.60;81.56;98028.94;6134263;23;20045;-81
2022/04/07 07:32:44;;;;;;;1.85;1.15;;;;;;;10.70;80.71;98012.72;6133634;23;20398;-82
2022/04/07 07:35:12;;;;;;;2.58;1.25;;;;;;;10.68;80.94;98012.16;6130658;23;20057;-81
2022/04/07 07:37:48;;;;;;;3.53;1.30;;;;;;;10.62;81.34;98011.22;6131169;23;20026;-82
2022/04/07 07:40:15;;;;;;;1.30;0.73;;;;;;;10.61;81.35;97997.34;6132869;23;20026;-81
2022/04/07 07:42:42;;;;;;;0.98;0.80;;;;;;;10.69;81.11;97985.78;6132280;23;20025;-82
2022/04/07 07:45:10;;;;;;;1.02;0.55;;;;;;;10.57;81.68;97988.34;6133457;23;20097;-80
2022/04/07 07:47:36;;;;;;;1.35;0.93;;;;;;;10.58;81.63;97974.25;6134136;23;20057;-82
2022/04/07 07:50:05;;;;;;;1.88;1.20;;;;;;;10.48;83.50;97968.72;6133736;23;20033;-81
2022/04/07 07:52:32;;;;;;;1.17;1.02;;;;;;;10.43;83.75;97959.94;6134133;23;20053;-81
2022/04/07 07:55:01;;;;;;;2.40;0.70;;;;;;;10.55;83.42;97952.97;6132900;23;20501;-82
2022/04/07 07:57:28;;;;;;;0.75;0.73;;;;;;;10.62;83.80;97948.44;6132733;23;20025;-82
2022/04/07 07:59:55;;;;;;;6.70;3.55;;;;;;;10.64;83.67;97943.78;6131923;23;20097;-81
2022/04/07 08:02:21;;;;;;;3.67;2.38;;;;;;;10.60;84.39;97940.03;6132547;23;20060;-81
2022/04/07 08:04:48;;;;;;;1.60;1.20;;;;;;;10.74;83.20;97910.06;6131581;23;20101;-82
2022/04/07 08:07:15;;;;;;;1.50;1.23;;;;;;;10.71;82.92;97941.09;6130997;23;20105;-81
2022/04/07 08:09:41;;;;;;;2.20;0.80;;;;;;;10.75;83.19;97929.97;6131433;23;20104;-81
2022/04/07 08:12:10;;;;;;;2.35;1.45;;;;;;;10.75;84.26;97927.34;6132541;23;20070;-81
2022/04/07 08:14:40;;;;;;;1.67;1.58;;;;;;;10.66;84.43;97939.13;6132892;23;20088;-81
2022/04/07 08:17:06;;;;;;;2.70;2.05;;;;;;;10.69;85.03;97915.16;6131688;23;20025;-82
2022/04/07 08:19:35;;;;;;;2.45;1.88;;;;;;;10.67;85.60;97911.97;6130865;23;20170;-82
2022/04/07 08:22:02;;;;;;;1.88;1.33;;;;;;;10.77;85.97;97909.63;6132196;23;20018;-82
2022/04/07 08:24:28;;;;;;;2.15;1.27;;;;;;;10.89;85.49;97907.81;6131903;23;20339;-81
2022/04/07 08:26:55;;;;;;;1.45;1.35;;;;;;;10.97;84.83;97898.84;6131775;23;20022;-81
2022/04/07 08:29:23;;;;;;;0.82;0.82;;;;;;;10.95;85.18;97887.81;6131714;23;20104;-82
2022/04/07 08:31:51;;;;;;;2.55;1.48;;;;;;;11.13;84.54;97884.31;6134004;23;20021;-81
2022/04/07 08:34:18;;;;;;;0.82;0.70;;;;;;;11.28;83.83;97871.59;6134448;23;20050;-82
2022/04/07 08:36:45;;;;;;;0.90;0.80;;;;;;;11.34;84.03;97870.69;6134288;23;20033;-83
2022/04/07 08:39:11;;;;;;;1.27;1.10;;;;;;;11.45;82.75;97880.34;6136742;23;20033;-82
2022/04/07 08:41:39;;;;;;;0.57;0.50;;;;;;;11.56;82.06;97871.69;6136125;23;20365;-81
2022/04/07 08:44:06;;;;;;;0.95;0.95;;;;;;;11.64;81.66;97858.22;6136341;23;20088;-81
2022/04/07 08:46:35;;;;;;;1.75;0.90;;;;;;;11.63;81.90;97867.13;6135894;23;20033;-82
2022/04/07 08:49:03;;;;;;;0.88;0.75;;;;;;;11.64;82.26;97845.13;6136548;23;20022;-82
2022/04/07 08:51:31;;;;;;;0.93;0.90;;;;;;;11.52;83.13;97861.88;6135012;23;20026;-82
2022/04/07 08:53:58;;;;;;;2.63;0.65;;;;;;;11.54;83.90;97844.91;6133269;23;20014;-82
2022/04/07 08:56:25;;;;;;;7.75;1.40;;;;;;;11.63;83.88;97848.78;6132180;23;20102;-81
2022/04/07 08:58:53;;;;;;;2.03;0.80;;;;;;;11.63;85.13;97814.75;6134801;23;20530;-80
2022/04/07 09:01:20;;;;;;;3.22;2.17;;;;;;;11.78;84.32;97837.06;6135476;23;20466;-81
2022/04/07 09:03:48;;;;;;;2.38;1.10;;;;;;;11.86;83.41;97823.56;6135983;23;20056;-80
2022/04/07 09:06:17;;;;;;;1.33;1.23;;;;;;;12.04;83.05;97833.09;6135341;23;20102;-81
2022/04/07 09:08:43;;;;;;;1.20;1.10;;;;;;;12.19;82.93;97822.91;6134591;23;20131;-81
2022/04/07 09:11:11;;;;;;;0.70;0.70;;;;;;;12.65;81.80;97819.25;6136132;23;20053;-81
2022/04/07 09:13:40;;;;;;;0.98;0.85;;;;;;;12.65;81.24;97800.91;6136340;23;20030;-82
2022/04/07 09:16:11;;;;;;;3.92;1.27;;;;;;;12.64;81.34;97794.06;6135161;23;20085;-81
2022/04/07 09:18:38;;;;;;;0.65;0.50;;;;;;;12.69;81.23;97788.09;6133734;23;20022;-81
2022/04/07 09:21:16;;;;;;;1.23;0.70;;;;;;;12.75;80.22;97784.53;6135576;23;20064;-81
2022/04/07 09:23:43;;;;;;;0.50;0.50;;;;;;;12.76;80.64;97780.88;6134451;23;20037;-80
2022/04/07 09:26:12;;;;;;;1.98;0.63;;;;;;;12.83;79.68;97774.41;6132907;23;20029;-81
2022/04/07 09:28:39;;;;;;;0.55;0.40;;;;;;;12.76;79.83;97800.00;6133854;23;20030;-81
2022/04/07 09:31:07;;;;;;;0.77;0.57;;;;;;;12.70;81.08;97777.38;6135460;23;20053;-82
2022/04/07 09:33:34;;;;;;;0.95;0.57;;;;;;;12.62;82.34;97764.63;6136341;23;20073;-82
2022/04/07 09:36:03;;;;;;;1.55;0.30;;;;;;;12.63;81.27;97767.03;6136722;23;20033;-82
2022/04/07 09:38:31;;;;;;;0.80;0.55;;;;;;;12.73;80.61;97765.59;6135543;23;20030;-82
2022/04/07 09:41:08;;;;;;;5.55;0.85;;;;;;;12.86;79.90;97765.25;6135105;23;20014;-82
2022/04/07 09:43:47;;;;;;;0.30;0.30;;;;;;;12.89;79.77;97760.31;6136184;23;20025;-82
2022/04/07 09:46:15;;;;;;;0.73;0.70;;;;;;;12.83;79.11;97748.16;6135446;23;20033;-81
2022/04/07 09:48:59;;;;;;;1.13;0.50;;;;;;;12.86;79.72;97760.78;6135434;23;20026;-81
2022/04/07 09:51:26;;;;;;;0.22;0.22;;;;;;;12.77;80.94;97762.22;6136928;23;20028;-81
2022/04/07 09:53:56;;;;;;;0.40;0.40;;;;;;;12.78;80.92;97753.31;6135386;23;20375;-83
2022/04/07 09:56:26;;;;;;;1.40;0.50;;;;;;;12.77;82.07;97770.09;6135112;23;20026;-81
2022/04/07 09:58:57;;;;;;;1.45;0.88;;;;;;;12.62;82.77;97756.78;6134214;23;20408;-81
2022/04/07 10:01:24;;;;;;;1.30;0.70;;;;;;;12.30;84.42;97770.41;6134874;23;20026;-83
2022/04/07 10:03:51;;;;;;;1.55;0.80;;;;;;;12.09;86.82;97775.53;6134586;23;20112;-83
2022/04/07 10:06:19;;;;;;;1.08;0.70;;;;;;;11.95;88.61;97775.03;6134948;23;20045;-82
2022/04/07 10:08:50;;;;;;;0.93;0.60;;;;;;;11.83;89.36;97763.78;6135467;23;20029;-82
2022/04/07 10:11:18;;;;;;;1.27;0.60;;;;;;;11.76;90.29;97781.47;6135819;23;20033;-82
2022/04/07 10:13:46;;;;;;;1.00;0.70;;;;;;;11.70;91.41;97782.38;6140436;23;20026;-82
2022/04/07 10:16:15;;;;;;;2.60;0.85;;;;;;;11.59;91.93;97803.13;6135582;23;20109;-81
2022/04/07 10:18:46;;;;;;;2.63;1.27;;;;;;;11.46;91.90;97850.50;6133701;23;20026;-81
2022/04/07 10:21:38;;;;;;;7.00;2.85;;;;;;;10.54;98.79;97871.09;6137412;23;20033;-81
2022/04/07 10:24:17;;;;;;;4.40;1.83;;;;;;;9.71;100.00;97870.13;6137543;23;20021;-82
2022/04/07 10:29:22;;;;;;;2.53;1.15;;;;;;;9.73;100.00;97847.19;6162188;23;20014;-79
2022/04/07 10:32:21;;;;;;;3.08;1.30;;;;;;;9.79;98.87;97848.94;6162937;23;20018;-80
2022/04/07 10:34:55;;;;;;;4.13;1.65;;;;;;;9.81;96.49;97883.47;6162699;23;20403;-78
2022/04/07 10:37:41;;;;;;;3.38;1.50;;;;;;;9.73;95.84;97866.28;6162810;23;20036;-81
2022/04/07 10:40:37;;;;;;;3.17;1.05;;;;;;;9.80;94.24;97881.88;6160876;23;20075;-79
2022/04/07 10:43:09;;;;;;;4.15;1.02;;;;;;;9.85;91.93;97879.41;6163190;23;20084;-81
2022/04/07 10:45:38;;;;;;;4.88;1.30;;;;;;;10.05;90.51;97866.91;6160181;23;20049;-82
2022/04/07 10:48:25;;;;;;;0.73;0.73;;;;;;;10.38;87.99;97886.63;6165006;23;20533;-82
2022/04/07 10:50:54;;;;;;;2.75;1.40;;;;;;;10.62;86.42;97890.91;6170454;23;20032;-81
2022/04/07 10:53:24;;;;;;;3.28;1.02;;;;;;;10.48;86.04;97895.53;6168199;23;20096;-81
2022/04/07 10:56:02;;;;;;;2.65;1.00;;;;;;;10.43;85.66;97889.34;6172237;23;20029;-81
2022/04/07 10:58:57;;;;;;;1.25;1.00;;;;;;;10.81;81.21;97853.22;6165455;23;20026;-80
2022/04/07 11:02:02;;;;;;;1.35;1.08;;;;;;;11.14;74.14;97850.06;6167065;23;20030;-78
2022/04/07 11:05:01;;;;;;;1.55;0.73;;;;;;;11.54;73.39;97868.50;6171990;23;20108;-80
2022/04/07 11:07:54;;;;;;;1.55;1.20;;;;;;;11.94;70.51;97870.38;6168818;23;20030;-82
2022/04/07 11:10:45;;;;;;;1.38;0.73;;;;;;;12.02;66.38;97891.00;6167751;23;20025;-81
2022/04/07 11:13:15;;;;;;;1.25;1.15;;;;;;;12.17;63.99;97893.13;6167406;23;20021;-80
2022/04/07 11:15:58;;;;;;;1.95;0.90;;;;;;;11.92;61.37;97893.41;6167806;23;20033;-83
2022/04/07 11:18:57;;;;;;;1.55;0.55;;;;;;;11.90;59.58;97877.13;6166916;23;20022;-82
2022/04/07 11:21:25;;;;;;;2.90;0.95;;;;;;;12.12;57.55;97888.59;6168620;23;20045;-82
2022/04/07 11:23:56;;;;;;;0.57;0.45;;;;;;;12.42;57.80;97911.94;6169549;23;20025;-81
2022/04/07 11:26:26;;;;;;;1.42;0.70;;;;;;;12.59;58.79;97886.56;6167455;23;20028;-81
2022/04/07 11:29:08;;;;;;;1.85;0.70;;;;;;;12.66;58.74;97893.50;6165574;23;20025;-81
2022/04/07 11:31:43;;;;;;;0.57;0.50;;;;;;;12.52;56.18;97916.59;6167029;23;20106;-81
2022/04/07 11:34:49;;;;;;;1.52;0.63;;;;;;;12.75;58.05;97911.25;6168112;23;20120;-79
2022/04/07 11:37:19;;;;;;;2.88;1.08;;;;;;;12.90;57.88;97903.63;6109315;23;20022;-81
2022/04/07 11:39:50;;;;;;;1.65;0.73;;;;;;;12.92;56.45;97906.03;6157114;23;20546;-81
2022/04/07 11:42:22;;;;;;;1.25;0.70;;;;;;;12.99;55.81;97924.25;6170586;23;20021;-80
2022/04/07 11:44:56;;;;;;;3.42;0.82;;;;;;;12.80;56.17;97915.78;6168309;23;20357;-82
2022/04/07 11:47:30;;;;;;;0.80;0.65;;;;;;;12.93;56.85;97908.41;6169105;23;20092;-80
2022/04/07 11:50:26;;;;;;;2.70;0.80;;;;;;;13.09;57.30;97922.59;6167758;23;20493;-80
2022/04/07 11:52:55;;;;;;;1.40;0.75;;;;;;;13.11;55.34;97938.91;6167999;23;20022;-80
2022/04/07 11:55:29;;;;;;;5.85;1.23;;;;;;;13.30;56.67;97923.72;6169327;23;20025;-82
2022/04/07 11:57:59;;;;;;;4.32;1.38;;;;;;;13.48;55.60;97926.09;6169283;23;20025;-83
2022/04/07 12:00:33;;;;;;;2.53;1.30;;;;;;;13.37;52.62;97939.31;6167723;23;20036;-82
2022/04/07 12:03:02;;;;;;;1.83;1.00;;;;;;;13.17;52.09;97939.81;6165474;23;20053;-82
2022/04/07 12:05:31;;;;;;;1.95;1.00;;;;;;;13.28;52.13;97952.03;6164243;23;20417;-81
2022/04/07 12:08:05;;;;;;;4.55;1.30;;;;;;;13.17;49.50;97930.09;6163646;23;20033;-80
2022/04/07 12:10:35;;;;;;;2.30;1.05;;;;;;;13.30;50.67;97955.22;6164002;23;20022;-81
2022/04/07 12:13:15;;;;;;;2.28;1.27;;;;;;;13.20;49.67;97957.72;6163060;23;20385;-82
2022/04/07 12:15:42;;;;;;;7.55;2.45;;;;;;;13.25;51.98;97963.03;6165211;23;20026;-81
2022/04/07 12:18:09;;;;;;;3.47;1.23;;;;;;;13.17;52.85;97959.00;6164109;23;20060;-81
2022/04/07 12:20:40;;;;;;;5.72;1.80;;;;;;;12.90;50.63;97963.19;6163522;23;20021;-81
2022/04/07 12:23:11;;;;;;;4.63;1.60;;;;;;;13.00;49.07;97986.22;6163799;23;20022;-81
2022/04/07 12:25:38;;;;;;;5.07;1.90;;;;;;;13.18;50.11;97972.91;6163552;23;20096;-82
2022/04/07 12:28:10;;;;;;;4.53;1.70;;;;;;;13.05;52.31;97989.72;6161195;23;20025;-82
2022/04/07 12:30:44;;;;;;;3.25;1.38;;;;;;;13.01;54.88;97982.56;6162425;23;20073;-81
2022/04/07 12:33:10;;;;;;;2.30;1.27;;;;;;;13.19;54.60;97990.25;6162326;23;20069;-81
2022/04/07 12:35:49;;;;;;;2.38;1.58;;;;;;;13.53;52.72;97986.59;6160534;23;20030;-82